In Rescue
 
Open Full Screen Window  High Contrast Mode
Wind Gusting 00 knots
07
October 29, 2020 11:51 PM EDT
Weather Information
Wind Direction
  360 °
Wind Speed
  07 kt (8 mph)
Wind Gust
  00 kt (0 mph)
Altimeter
29.98 in
Visibility
10 SM
Temperature
02° C
36° F
Dewpoint
00° C
32° F
Humidity
87%
Sky Condition
Overcast @ 1,100 ft
MVFR

METAR KRNP 300351Z AUTO 36007KT 10SM OVC011 02/00 A2998 RMK AO2 T00220003

FAA Disclaimer: The data displayed is for advisory purposes only and is not to be used for flight planning or operations.